This is the latest recevied weather packets stored in our database for station/object KC5L-7. If no packets are shown the sender has not sent any weather packets the latest 1 day(s).
| Time | Temp. | Humidity | Pressure | Rain* | Wind** | Luminosity | Snow |
|---|---|---|---|---|---|---|---|
| 1836274755 | 29.44° C | 50% | 1012.9 hPa | 0 mm | 0 m/s | - | - |
| 1836274155 | 29.44° C | 46% | 1012.8 hPa | 0 mm | 0.45 m/s, 193° | - | - |
| 1778046380 | 25° C | 84% | 1006.5 hPa | 0 mm | 0 m/s | - | - |
| 1778045780 | 25.56° C | 84% | 1006.4 hPa | 0 mm | 0 m/s | - | - |
| 1778045180 | 25.56° C | 82% | 1006.3 hPa | 0 mm | 0 m/s | - | - |
| 1778043380 | 25.56° C | 81% | 1006.2 hPa | 0 mm | 0 m/s | - | - |
| 1778042780 | 25.56° C | 81% | 1006.1 hPa | 0 mm | 0 m/s | - | - |
| 1778042180 | 26.11° C | 81% | 1006.1 hPa | 0 mm | 0 m/s | - | - |
| 1778041580 | 26.11° C | 81% | 1006 hPa | 0 mm | 0 m/s | - | - |
| 1778040380 | 26.11° C | 79% | 1005.8 hPa | 0 mm | 0.45 m/s, 198° | - | - |
| 1778039780 | 26.11° C | 78% | 1005.6 hPa | 0 mm | 0.45 m/s, 190° | - | - |
| 1778039181 | 26.67° C | 78% | 1005.5 hPa | 0 mm | 0.45 m/s, 186° | - | - |
| 1778038580 | 26.67° C | 78% | 1005.3 hPa | 0 mm | 0 m/s | - | - |
| 1778037980 | 26.67° C | 76% | 1005.2 hPa | 0 mm | 0 m/s | - | - |
| 1778036780 | 27.22° C | 75% | 1005.1 hPa | 0 mm | 0 m/s | - | - |
| 1778036180 | 27.22° C | 75% | 1005 hPa | 0 mm | 0 m/s | - | - |
| 1778035580 | 27.78° C | 73% | 1004.8 hPa | 0 mm | 0 m/s | - | - |
| 1778034980 | 27.78° C | 72% | 1004.5 hPa | 0 mm | 0 m/s | - | - |
| 1778034380 | 27.78° C | 71% | 1004.3 hPa | 0 mm | 0 m/s | - | - |
| 1778033180 | 28.33° C | 69% | 1004.3 hPa | 0 mm | 0 m/s | - | - |
| 1778032580 | 28.33° C | 68% | 1003.9 hPa | 0 mm | 0 m/s | - | - |
| 1778031980 | 28.89° C | 68% | 1003.6 hPa | 0 mm | 0 m/s | - | - |
| 1778031380 | 28.89° C | 68% | 1003.5 hPa | 0 mm | 0 m/s | - | - |
| 1778030780 | 28.89° C | 66% | 1003.3 hPa | 0 mm | 0 m/s | - | - |
| 1778029580 | 28.89° C | 65% | 1003 hPa | 0 mm | 0 m/s | - | - |
* Rain latest hour (hover to see other rain measurements)
** Current wind speed in m/s (hover to see current wind gust speed)